CheckWX is a tool to help pilots better visualize weather data.  It is not intended as a substitute for an official pre-flight weather briefing.

02:06:38 UTC

KPWM TAF
Portland International Jetport
Portland, Maine, USA
KPWM 110545Z 1106/1206 09008KT 1/2SM -SHRA FG OVC002 FM111300 14010KT 5SM BR BKN005 FM111500 16009G16KT P6SM SCT012 BKN035 FM112200 17008KT P6SM BKN008

Jul-11@
06:00 UTC

Jul-11 @ 06:00 UTC

Jul-11@
13:00 UTC

Jul-11 @ 13:00 UTC

TAF KPWM 110545Z 1106/1206 09008KT 1/2SM -SHRA FG OVC002

Expired

Wind
  • 090° at 8 KTS
Conditions
Light Showers, Rain, Fog
Cloud Levels
  • Overcast at 200' AGL

Jul-11@
13:00 UTC

Jul-11 @ 13:00 UTC

Jul-11@
15:00 UTC

Jul-11 @ 15:00 UTC

FM111300 14010KT 5SM BR BKN005

Expired

Wind
  • 140° at 10 KTS
Conditions
Mist
Cloud Levels
  • Broken at 500' AGL

Jul-11@
15:00 UTC

Jul-11 @ 15:00 UTC

Jul-11@
22:00 UTC

Jul-11 @ 22:00 UTC

FM111500 16009G16KT P6SM SCT012 BKN035

Expired

Wind
  • 160° at 9 KTS
  • {Gusting to 16 KTS
Cloud Levels
  • Scattered at 1,200' AGL
  • Broken at 3,500' AGL

Jul-11@
22:00 UTC

Jul-11 @ 22:00 UTC

Jul-12@
06:00 UTC

Jul-12 @ 06:00 UTC

FM112200 17008KT P6SM BKN008

From

From Standard forecast or significant change

Wind
  • 170° at 8 KTS
Cloud Levels
  • Broken at 800' AGL